Flight Track Log - Related Links

Times and Time Zones

All times are in EDT time to prevent confusion due to time zone crossing. See the N712WB flight status page for this flight to view local times or setup timezone preferences in your user account.

Time Position Orientation Groundspeed Altitude Reporting Facility
EDT Latitude Longitude Course Direction KTS MPH feet Rate Location/Type
Sat 12:07:01 PM 30.5047 -90.3992 187° South 288 331 900  Level Houston Center
Sat 12:07:40 PM 30.4750 -90.4033 187° South 246 283 2,300 2,139 Climbing Houston Center
Sat 12:08:42 PM 30.4722 -90.4803 268° West 246 283 4,500 2,274 Climbing Houston Center
Sat 12:09:44 PM 30.4928 -90.5731 284° West 274 315 7,000 2,419 Climbing Houston Center
Sat 12:10:46 PM 30.5067 -90.6708 279° West 305 351 9,500 1,854 Climbing Houston Center
Sat 12:11:47 PM 30.5261 -90.7736 282° West 335 386 10,800 1,463 Climbing Houston Center
Sat 12:12:49 PM 30.5461 -90.8872 282° West 361 415 12,500 1,887 Climbing Houston Center
Sat 12:13:51 PM 30.5703 -91.0239 282° West 363 418 14,700 1,935 Climbing Houston Center
Sat 12:14:53 PM 30.5897 -91.1372 281° West 360 414 16,500 1,512 Climbing Houston Center
Sat 12:15:54 PM 30.6086 -91.2519 281° West 364 419 17,800 1,268 Climbing Houston Center
Sat 12:16:56 PM 30.6297 -91.3694 282° West 373 429 19,100 1,258 Climbing Houston Center
Sat 12:17:58 PM 30.6503 -91.4942 281° West 386 444 20,400 1,220 Climbing Houston Center
Sat 12:18:59 PM 30.6722 -91.6175 282° West 391 450 21,600 1,122 Climbing Houston Center
Sat 12:20:01 PM 30.6936 -91.7433 281° West 399 459 22,700 1,161 Climbing Houston Center
Sat 12:21:03 PM 30.7150 -91.8717 281° West 406 467 24,000 1,306 Climbing Houston Center
Sat 12:22:05 PM 30.7539 -92.0233 287° West 408 470 25,400 1,268 Climbing Houston Center
Sat 12:23:06 PM 30.7950 -92.1492 291° West 416 479 26,600 1,073 Climbing Houston Center
Sat 12:24:08 PM 30.8350 -92.2772 290° West 421 484 27,600 1,065 Climbing Houston Center
Sat 12:25:10 PM 30.8764 -92.4064 291° West 422 486 28,800 1,171 Climbing Houston Center
Sat 12:26:11 PM 30.9172 -92.5383 290° West 429 494 30,000 1,171 Climbing Houston Center
Sat 12:27:13 PM 30.9603 -92.6728 291° West 437 503 31,200 1,210 Climbing Houston Center
Sat 12:28:15 PM 31.0061 -92.8200 290° West 443 510 32,500 1,122 Climbing Houston Center
Sat 12:29:16 PM 31.0492 -92.9556 290° West 446 513 33,500 1,171 Climbing Houston Center
Sat 12:30:18 PM 31.0919 -93.0942 290° West 453 521 34,900 1,210 Climbing Houston Center
Sat 12:31:20 PM 31.1325 -93.2289 289° West 446 513 36,000 537 Climbing Houston Center
Sat 12:32:21 PM 31.1756 -93.3686 290° West 458 527 36,000  Level Houston Center
Sat 12:33:23 PM 31.2300 -93.5453 290° West 483 556 36,000  Level Houston Center
Sat 12:34:24 PM 31.2742 -93.6875 290° West 491 565 36,000  Level Houston Center
Sat 12:35:26 PM 31.3181 -93.8381 289° West 491 565 36,000  Level Houston Center
Sat 12:36:28 PM 31.3647 -93.9886 290° West 492 566 36,000 439 Level Houston Center
Sat 12:37:29 PM 31.4169 -94.1681 289° West 490 564 36,900 927 Climbing Houston Center
Sat 12:38:31 PM 31.4606 -94.3131 289° West 480 552 37,900 968 Climbing Houston Center
Sat 12:39:33 PM 31.5036 -94.4567 289° West 474 545 38,900 927 Climbing Houston Center
Sat 12:40:34 PM 31.5442 -94.5992 288° West 468 539 39,800 537 Climbing Houston Center
Sat 12:41:36 PM 31.5869 -94.7417 289° West 468 539 40,000 98 Climbing Houston Center
Sat 12:42:37 PM 31.6286 -94.8894 288° West 478 550 40,000  Level Houston Center
Sat 12:43:17 PM 31.6644 -95.0142 289° West 481 554 40,000  Level Fort Worth Center
Sat 12:44:17 PM 31.7069 -95.1644 288° West 481 554 40,000  Level Fort Worth Center
Sat 12:45:17 PM 31.7511 -95.3147 289° West 481 554 40,000  Level Fort Worth Center
Sat 12:46:17 PM 31.7911 -95.4606 288° West 481 554 40,000  Level Fort Worth Center
Sat 12:47:17 PM 31.8331 -95.6089 288° West 481 554 40,000  Level Fort Worth Center
Sat 12:48:17 PM 31.8728 -95.7597 287° West 481 554 40,000  Level Fort Worth Center
Sat 12:49:17 PM 31.9161 -95.9033 290° West 481 554 40,000  Level Fort Worth Center
Sat 12:50:17 PM 31.9531 -96.0225 290° West 473 544 40,000  Level Fort Worth Center
Sat 12:51:17 PM 31.9944 -96.1936 286° West 473 544 40,000 450 Level Fort Worth Center
Sat 12:52:17 PM 32.0356 -96.3375 289° West 473 544 40,900 900 Climbing Fort Worth Center
Sat 12:53:17 PM 32.0742 -96.4792 288° West 467 537 41,800 950 Climbing Fort Worth Center
Sat 12:54:17 PM 32.1106 -96.6164 287° West 457 526 42,800 600 Climbing Fort Worth Center
Sat 12:55:17 PM 32.1469 -96.7533 287° West 447 514 43,000 100 Climbing Fort Worth Center
Sat 12:56:17 PM 32.1850 -96.8931 288° West 442 509 43,000  Level Fort Worth Center
Sat 12:57:17 PM 32.2211 -97.0303 287° West 442 509 43,000  Level Fort Worth Center
Sat 12:58:17 PM 32.2611 -97.1703 289° West 442 509 43,000  Level Fort Worth Center
Sat 12:59:17 PM 32.2989 -97.3125 287° West 447 514 43,000  Level Fort Worth Center
Sat 01:00:17 PM 32.3344 -97.4553 286° West 447 514 43,000  Level Fort Worth Center
Sat 01:01:17 PM 32.3739 -97.5956 288° West 447 514 43,000  Level Fort Worth Center
Sat 01:02:17 PM 32.4111 -97.7383 287° West 447 514 43,000  Level Fort Worth Center
Sat 01:03:17 PM 32.4464 -97.8786 287° West 452 520 43,000  Level Fort Worth Center
Sat 01:04:17 PM 32.4811 -98.0019 288° West 452 520 43,000  Level Fort Worth Center
Sat 01:05:17 PM 32.5181 -98.1428 287° West 447 514 43,000  Level Fort Worth Center
Sat 01:06:17 PM 32.5506 -98.2833 285° West 447 514 43,000  Level Fort Worth Center
Sat 01:07:17 PM 32.5558 -98.4289 273° West 447 514 43,000  Level Fort Worth Center
Sat 01:08:17 PM 32.5628 -98.5819 273° West 435 501 43,000  Level Fort Worth Center
Sat 01:09:17 PM 32.5717 -98.7250 274° West 435 501 43,000  Level Fort Worth Center
Sat 01:10:17 PM 32.5786 -98.8706 273° West 440 506 43,000  Level Fort Worth Center
Sat 01:11:17 PM 32.5872 -99.0111 274° West 440 506 43,000  Level Fort Worth Center
Sat 01:12:17 PM 32.5978 -99.1544 275° West 440 506 43,000  Level Fort Worth Center
Sat 01:13:17 PM 32.6250 -99.2931 283° West 440 506 43,000  Level Fort Worth Center
Sat 01:14:17 PM 32.6625 -99.4344 288° West 440 506 43,000  Level Fort Worth Center
Sat 01:15:17 PM 32.7000 -99.5711 288° West 440 506 43,000  Level Fort Worth Center
Sat 01:16:17 PM 32.7372 -99.7103 288° West 440 506 43,000  Level Fort Worth Center
Sat 01:17:17 PM 32.7739 -99.8569 287° West 451 519 43,000  Level Fort Worth Center
Sat 01:18:17 PM 32.8089 -99.9939 287° West 456 525 43,000  Level Fort Worth Center
Sat 01:19:17 PM 32.8475 -100.1358 288° West 456 525 43,000  Level Fort Worth Center
Sat 01:20:17 PM 32.8819 -100.2756 286° West 449 517 43,000  Level Fort Worth Center
Sat 01:21:17 PM 32.9164 -100.4103 287° West 438 504 43,000  Level Fort Worth Center
Sat 01:22:17 PM 32.9528 -100.5500 287° West 438 504 43,000  Level Fort Worth Center
Sat 01:23:17 PM 32.9847 -100.6875 286° West 438 504 43,000  Level Fort Worth Center
Sat 01:24:17 PM 33.0206 -100.8250 287° West 443 510 43,000  Level Fort Worth Center
Sat 01:25:17 PM 33.0564 -100.9675 287° West 443 510 43,000  Level Fort Worth Center
Sat 01:26:17 PM 33.0900 -101.1028 287° West 437 503 43,000  Level Fort Worth Center
Sat 01:27:17 PM 33.1256 -101.2408 287° West 443 510 43,000  Level Fort Worth Center
Sat 01:28:17 PM 33.1608 -101.3811 287° West 443 510 43,000  Level Fort Worth Center
Sat 01:29:17 PM 33.1917 -101.5242 284° West 443 510 43,000  Level Fort Worth Center
Sat 01:30:17 PM 33.2247 -101.6622 286° West 443 510 43,000  Level Fort Worth Center
Sat 01:31:17 PM 33.2572 -101.8053 285° West 443 510 43,000  Level Fort Worth Center
Sat 01:32:17 PM 33.2900 -101.9461 286° West 443 510 43,000  Level Fort Worth Center
Sat 01:33:17 PM 33.3208 -102.0719 286° West 443 510 43,000  Level Fort Worth Center
Sat 01:34:17 PM 33.3586 -102.2281 286° West 448 516 43,000  Level Fort Worth Center
Sat 01:35:17 PM 33.3894 -102.3517 287° West 441 507 43,000  Level Fort Worth Center
Sat 01:36:17 PM 33.4269 -102.5056 286° West 441 507 43,000  Level Fort Worth Center
Sat 01:37:17 PM 33.4572 -102.6342 286° West 441 507 43,000  Level Fort Worth Center
Sat 01:39:11 PM 33.5219 -102.9100 286° West 439 505 43,000  Level Albuquerque Center
Sat 01:40:13 PM 33.5539 -103.0494 285° West 438 504 43,000  Level Albuquerque Center
Sat 01:41:15 PM 33.5856 -103.1878 285° West 435 501 43,000  Level Albuquerque Center
Sat 01:42:17 PM 33.6181 -103.3278 286° West 437 503 43,000  Level Albuquerque Center
Sat 01:43:19 PM 33.6489 -103.4689 285° West 437 503 43,000  Level Albuquerque Center
Sat 01:44:21 PM 33.6814 -103.6125 285° West 443 510 43,000  Level Albuquerque Center
Sat 01:45:22 PM 33.7217 -103.7842 286° West 450 518 43,000  Level Albuquerque Center
Sat 01:46:24 PM 33.7556 -103.9375 285° West 445 512 43,000  Level Albuquerque Center
Sat 01:47:26 PM 33.7872 -104.0794 285° West 443 510 43,000  Level Albuquerque Center
Sat 01:48:28 PM 33.8175 -104.2219 284° West 442 509 43,000  Level Albuquerque Center
Sat 01:49:30 PM 33.8506 -104.3753 285° West 443 510 43,000  Level Albuquerque Center
Sat 01:50:32 PM 33.8817 -104.5172 285° West 441 507 43,000  Level Albuquerque Center
Sat 01:51:34 PM 33.9147 -104.6689 285° West 439 505 43,000  Level Albuquerque Center
Sat 01:52:35 PM 33.9444 -104.8089 284° West 436 502 43,000  Level Albuquerque Center
Sat 01:53:37 PM 33.9767 -104.9606 284° West 436 502 43,000  Level Albuquerque Center
Sat 01:54:39 PM 34.0067 -105.0994 285° West 432 497 43,000  Level Albuquerque Center
Sat 01:55:41 PM 34.0347 -105.2286 285° West 435 501 43,000 242 Level Albuquerque Center
Sat 01:56:43 PM 34.0686 -105.3931 284° West 431 496 43,500 581 Climbing Albuquerque Center
Sat 01:57:45 PM 34.0975 -105.5308 284° West 424 488 44,200 634 Climbing Albuquerque Center
Sat 01:58:46 PM 34.1258 -105.6700 284° West 423 487 44,800 585 Climbing Albuquerque Center
Sat 01:59:48 PM 34.1539 -105.8033 284° West 412 474 45,400 532 Climbing Albuquerque Center
Sat 02:00:50 PM 34.1814 -105.9386 284° West 411 473 45,900 435 Climbing Albuquerque Center
Sat 02:01:52 PM 34.2083 -106.0744 284° West 412 474 46,300 387 Climbing Albuquerque Center
Sat 02:02:54 PM 34.2361 -106.2108 284° West 415 478 46,700 339 Climbing Albuquerque Center
Sat 02:03:56 PM 34.2639 -106.3550 283° West 416 479 47,000 146 Climbing Albuquerque Center
Sat 02:04:57 PM 34.2911 -106.4919 284° West 416 479 47,000  Level Albuquerque Center
Sat 02:05:59 PM 34.3217 -106.6444 284° West 423 487 47,000  Level Albuquerque Center
Sat 02:07:01 PM 34.3500 -106.7861 284° West 431 496 47,000  Level Albuquerque Center
Sat 02:08:03 PM 34.3806 -106.9386 284° West 433 498 47,000  Level Albuquerque Center
Sat 02:09:05 PM 34.4075 -107.0819 283° West 436 502 47,000  Level Albuquerque Center
Sat 02:10:06 PM 34.4356 -107.2317 283° West 438 504 47,000  Level Albuquerque Center
Sat 02:11:08 PM 34.4622 -107.3767 283° West 439 505 47,000  Level Albuquerque Center
Sat 02:12:10 PM 34.4914 -107.5236 284° West 443 510 47,000  Level Albuquerque Center
Sat 02:13:12 PM 34.5186 -107.6703 283° West 444 511 47,000  Level Albuquerque Center
Sat 02:14:13 PM 34.5467 -107.8161 283° West 444 511 47,000  Level Albuquerque Center
Sat 02:15:15 PM 34.5725 -107.9611 282° West 440 506 47,000  Level Albuquerque Center
Sat 02:16:17 PM 34.6006 -108.1078 283° West 445 512 47,000  Level Albuquerque Center
Sat 02:17:18 PM 34.6300 -108.2714 282° West 441 507 47,000  Level Albuquerque Center
Sat 02:18:20 PM 34.6553 -108.4119 282° West 443 510 47,000  Level Albuquerque Center
Sat 02:19:22 PM 34.6853 -108.5717 283° West 438 504 47,000  Level Albuquerque Center
Sat 02:20:23 PM 34.7106 -108.7103 283° West 436 502 47,000  Level Albuquerque Center
Sat 02:21:25 PM 34.7394 -108.8747 282° West 440 506 47,000  Level Albuquerque Center
Sat 02:22:27 PM 34.7647 -109.0158 282° West 444 511 47,000  Level Albuquerque Center
Sat 02:23:28 PM 34.7886 -109.1564 282° West 444 511 47,000  Level Albuquerque Center
Sat 02:24:30 PM 34.8178 -109.3256 282° West 449 517 47,000  Level Albuquerque Center
Sat 02:25:31 PM 34.8425 -109.4675 282° West 449 517 47,000  Level Albuquerque Center
Sat 02:26:33 PM 34.8708 -109.6356 282° West 452 520 47,000  Level Albuquerque Center
Sat 02:27:35 PM 34.8953 -109.7792 282° West 452 520 47,000  Level Albuquerque Center
Sat 02:28:36 PM 34.9197 -109.9236 282° West 452 520 47,000  Level Albuquerque Center
Sat 02:29:38 PM 34.9478 -110.0908 282° West 452 520 47,000  Level Albuquerque Center
Sat 02:30:40 PM 34.9728 -110.2367 282° West 456 525 47,000  Level Albuquerque Center
Sat 02:31:41 PM 34.9983 -110.4031 281° West 451 519 47,000  Level Albuquerque Center
Sat 02:32:43 PM 35.0200 -110.5436 281° West 445 512 47,000  Level Albuquerque Center
Sat 02:33:44 PM 35.0464 -110.7111 281° West 447 514 47,000  Level Albuquerque Center
Sat 02:34:46 PM 35.0731 -110.8528 283° West 447 514 47,000  Level Albuquerque Center
Sat 02:35:48 PM 35.1078 -110.9928 287° West 448 516 47,000  Level Albuquerque Center
Sat 02:36:49 PM 35.1508 -111.1625 287° West 461 531 47,000  Level Albuquerque Center
Sat 02:37:51 PM 35.1861 -111.3081 287° West 454 522 47,000  Level Albuquerque Center
Sat 02:38:53 PM 35.2219 -111.4536 287° West 450 518 47,000  Level Albuquerque Center
Sat 02:39:54 PM 35.2575 -111.5989 287° West 449 517 47,000  Level Albuquerque Center
Sat 02:40:56 PM 35.2925 -111.7444 286° West 449 517 47,000  Level Albuquerque Center
Sat 02:41:57 PM 35.3261 -111.8886 286° West 449 517 47,000  Level Albuquerque Center
Sat 02:42:59 PM 35.3678 -112.0642 286° West 449 517 47,000  Level Albuquerque Center
Sat 02:44:01 PM 35.4028 -112.2089 287° West 448 516 47,000  Level Albuquerque Center
Sat 02:45:02 PM 35.4378 -112.3550 286° West 449 517 47,000  Level Albuquerque Center
Sat 02:46:04 PM 35.4719 -112.5017 286° West 451 519 47,000  Level Albuquerque Center
Sat 02:47:06 PM 35.5061 -112.6461 286° West 449 517 47,000  Level Albuquerque Center
Sat 02:48:07 PM 35.5472 -112.8192 286° West 449 517 47,000  Level Albuquerque Center
Sat 02:49:09 PM 35.5800 -112.9619 286° West 446 513 47,000  Level Albuquerque Center
Sat 02:50:11 PM 35.6119 -113.1056 285° West 445 512 47,000  Level Albuquerque Center
Sat 02:51:12 PM 35.6444 -113.2489 286° West 443 510 47,000  Level Albuquerque Center
Sat 02:52:42 PM 35.6953 -113.4797 285° West 440 506 47,000  Level Los Angeles Center
Sat 02:53:44 PM 35.7292 -113.6347 285° West 437 503 47,000  Level Los Angeles Center
Sat 02:54:46 PM 35.7614 -113.7800 285° West 438 504 47,000  Level Los Angeles Center
Sat 02:55:48 PM 35.7931 -113.9236 285° West 436 502 47,000  Level Los Angeles Center
Sat 02:56:49 PM 35.8247 -114.0678 285° West 437 503 47,000  Level Los Angeles Center
Sat 02:57:51 PM 35.8561 -114.2128 285° West 436 502 47,000  Level Los Angeles Center
Sat 02:59:05 PM 35.8869 -114.3569 285° West 436 502 47,000  Level Los Angeles Center
Sat 03:00:08 PM 35.9303 -114.5589 285° West 435 501 47,000  Level Los Angeles Center
Sat 03:01:09 PM 35.9603 -114.7036 284° West 435 501 47,000  Level Los Angeles Center
Sat 03:02:11 PM 35.9917 -114.8467 285° West 433 498 47,000  Level Los Angeles Center
Sat 03:03:13 PM 36.0331 -114.9858 290° West 431 496 47,000  Level Los Angeles Center
Sat 03:04:15 PM 36.0769 -115.1247 291° West 432 497 47,000  Level Los Angeles Center
Sat 03:05:17 PM 36.1203 -115.2644 291° West 434 499 47,000  Level Los Angeles Center
Sat 03:06:18 PM 36.1636 -115.4042 291° West 434 499 47,000  Level Los Angeles Center
Sat 03:07:20 PM 36.2039 -115.5447 290° West 426 490 47,000  Level Los Angeles Center
Sat 03:08:34 PM 36.2456 -115.6964 289° West 448 516 47,000  Level Los Angeles Center
Sat 03:09:36 PM 36.2656 -115.8875 277° West 441 507 47,000  Level Los Angeles Center
Sat 03:10:38 PM 36.2797 -116.0364 277° West 437 503 47,000  Level Los Angeles Center
Sat 03:11:39 PM 36.2939 -116.1861 277° West 438 504 47,000  Level Los Angeles Center
Sat 03:12:41 PM 36.3086 -116.3472 277° West 440 506 47,000  Level Los Angeles Center
Sat 03:13:43 PM 36.3219 -116.4978 276° West 441 507 47,000  Level Los Angeles Center
Sat 03:14:44 PM 36.3356 -116.6497 276° West 444 511 47,000  Level Los Angeles Center
Sat 03:15:46 PM 36.3492 -116.8008 276° West 444 511 47,000  Level Los Angeles Center
Sat 03:16:48 PM 36.3647 -116.9828 276° West 444 511 47,000  Level Los Angeles Center
Sat 03:17:49 PM 36.3769 -117.1344 276° West 444 511 47,000  Level Los Angeles Center
Sat 03:18:51 PM 36.3903 -117.2881 276° West 448 516 47,000  Level Los Angeles Center
Sat 03:19:53 PM 36.4033 -117.4392 276° West 445 512 47,000  Level Los Angeles Center
Sat 03:20:54 PM 36.4147 -117.5947 275° West 451 519 47,000  Level Los Angeles Center
Sat 03:21:56 PM 36.4269 -117.7481 276° West 451 519 47,000 -146 Level Los Angeles Center
Sat 03:22:57 PM 36.4411 -117.9319 276° West 450 518 46,700 -634 Descending Los Angeles Center
Sat 03:23:59 PM 36.4528 -118.0872 275° West 450 518 45,700 -968 Descending Los Angeles Center
Sat 03:25:01 PM 36.4656 -118.2419 276° West 452 520 44,700 -1,015 Descending Los Angeles Center
Sat 03:26:15 PM 36.4964 -118.4236 282° West 456 525 43,400 -1,022 Descending Los Angeles Center
Sat 03:27:16 PM 36.5356 -118.5706 288° West 452 520 42,400 -976 Descending Los Angeles Center
Sat 03:28:18 PM 36.5753 -118.7178 289° West 451 519 41,400 -1,024 Descending Los Angeles Center
Sat 03:29:19 PM 36.5814 -118.8989 272° West 467 537 40,300 -1,024 Descending Los Angeles Center
Sat 03:30:21 PM 36.5761 -119.0617 268° West 472 543 39,300 -1,452 Descending Los Angeles Center
Sat 03:31:23 PM 36.5708 -119.2258 268° West 476 548 37,300 -1,756 Descending Los Angeles Center
Sat 03:32:24 PM 36.5656 -119.3919 268° West 483 556 35,700 -1,268 Descending Los Angeles Center
Sat 03:33:26 PM 36.5594 -119.5622 267° West 492 566 34,700 -1,510 Descending Los Angeles Center
Sat 03:34:47 PM 36.5500 -119.8114 267° West 518 596 32,100 -1,930 Descending Oakland Center
Sat 03:35:49 PM 36.5428 -119.9900 267° West 520 598 30,100 -1,951 Descending Oakland Center
Sat 03:36:50 PM 36.5367 -120.1719 268° West 527 606 28,100 -2,459 Descending Oakland Center
Sat 03:37:51 PM 36.5289 -120.3797 267° West 513 590 25,100 -2,732 Descending Oakland Center
Sat 03:38:53 PM 36.5214 -120.5331 267° West 470 541 22,500 -2,439 Descending Oakland Center
Sat 03:39:54 PM 36.5153 -120.6778 267° West 431 496 20,100 -2,459 Descending Oakland Center
Sat 03:40:55 PM 36.5092 -120.8244 267° West 428 493 17,500 -2,634 Descending Oakland Center
Sat 03:41:57 PM 36.5011 -120.9633 266° West 412 474 14,700 -2,439 Descending Oakland Center
Sat 03:42:58 PM 36.4961 -121.0972 267° West 397 457 12,500 -2,000 Descending Oakland Center
Sat 03:44:00 PM 36.4892 -121.2289 266° West 389 448 10,600 -1,561 Descending Oakland Center
Sat 03:45:01 PM 36.4825 -121.3614 266° West 334 384 9,300 -1,475 Descending Oakland Center
Sat 03:46:02 PM 36.4783 -121.4581 267° West 291 335 7,600 -1,659 Descending Oakland Center
Sat 03:47:04 PM 36.4825 -121.5483 273° West 275 316 5,900 -1,317 Descending Oakland Center
Sat 03:48:05 PM 36.5075 -121.6194 294° West 266 306 4,900 -1,261 Descending Oakland Center
Sat 03:49:03 PM 36.5333 -121.7000 292° West 219 252 3,400 -1,424 Descending Northern Cal TRACON
Sat 03:50:03 PM 36.5667 -121.7667 302° West 179 206 2,100 -1,250 Descending Northern Cal TRACON
Sat 03:51:03 PM 36.5667 -121.8000 270° West 136 157 900 -1,200 Descending Northern Cal TRACON

Login

Don't have an account? Register now (free) for customized features, flight alerts, and more!